sensor_id;sensor_type;location;lat;lon;timestamp;P1;durP1;ratioP1;P2;durP2;ratioP2
2406;SDS011;37709;53.480;9.688;2023-07-16T00:00:51;6.57;;;5.20;;
2406;SDS011;37709;53.480;9.688;2023-07-16T00:03:19;10.20;;;5.70;;
2406;SDS011;37709;53.480;9.688;2023-07-16T00:05:49;6.10;;;4.50;;
2406;SDS011;37709;53.480;9.688;2023-07-16T00:08:17;5.10;;;4.10;;
2406;SDS011;37709;53.480;9.688;2023-07-16T00:10:45;7.97;;;5.20;;
2406;SDS011;37709;53.480;9.688;2023-07-16T00:13:13;7.80;;;5.00;;
2406;SDS011;37709;53.480;9.688;2023-07-16T00:15:40;6.90;;;4.60;;
2406;SDS011;37709;53.480;9.688;2023-07-16T00:18:08;9.50;;;4.93;;
2406;SDS011;37709;53.480;9.688;2023-07-16T00:20:36;16.27;;;7.10;;
2406;SDS011;37709;53.480;9.688;2023-07-16T00:23:04;9.37;;;4.90;;
2406;SDS011;37709;53.480;9.688;2023-07-16T00:25:33;7.23;;;4.20;;
2406;SDS011;37709;53.480;9.688;2023-07-16T00:28:01;8.20;;;4.70;;
2406;SDS011;37709;53.480;9.688;2023-07-16T00:30:30;8.13;;;4.57;;
2406;SDS011;37709;53.480;9.688;2023-07-16T00:32:58;6.63;;;4.10;;
2406;SDS011;37709;53.480;9.688;2023-07-16T00:35:26;6.37;;;4.77;;
2406;SDS011;37709;53.480;9.688;2023-07-16T00:37:54;6.30;;;4.77;;
2406;SDS011;37709;53.480;9.688;2023-07-16T00:40:22;7.57;;;4.67;;
2406;SDS011;37709;53.480;9.688;2023-07-16T00:42:50;8.40;;;5.47;;
2406;SDS011;37709;53.480;9.688;2023-07-16T00:45:17;6.37;;;4.70;;
2406;SDS011;37709;53.480;9.688;2023-07-16T00:47:45;4.93;;;4.03;;
2406;SDS011;37709;53.480;9.688;2023-07-16T00:50:13;6.27;;;4.50;;
2406;SDS011;37709;53.480;9.688;2023-07-16T00:52:41;12.43;;;4.60;;
2406;SDS011;37709;53.480;9.688;2023-07-16T00:55:10;8.60;;;4.73;;
2406;SDS011;37709;53.480;9.688;2023-07-16T00:57:38;10.00;;;4.57;;
2406;SDS011;37709;53.480;9.688;2023-07-16T01:00:08;8.13;;;4.60;;
2406;SDS011;37709;53.480;9.688;2023-07-16T01:02:37;7.40;;;4.63;;
2406;SDS011;37709;53.480;9.688;2023-07-16T01:05:06;6.63;;;4.60;;
2406;SDS011;37709;53.480;9.688;2023-07-16T01:07:34;6.13;;;4.80;;
2406;SDS011;37709;53.480;9.688;2023-07-16T01:10:03;4.53;;;3.73;;
2406;SDS011;37709;53.480;9.688;2023-07-16T01:12:32;10.17;;;4.57;;
2406;SDS011;37709;53.480;9.688;2023-07-16T01:14:59;6.60;;;4.90;;
2406;SDS011;37709;53.480;9.688;2023-07-16T01:17:29;8.37;;;4.70;;
2406;SDS011;37709;53.480;9.688;2023-07-16T01:19:57;6.43;;;4.37;;
2406;SDS011;37709;53.480;9.688;2023-07-16T01:24:55;5.73;;;3.80;;
2406;SDS011;37709;53.480;9.688;2023-07-16T01:27:34;5.70;;;4.20;;
2406;SDS011;37709;53.480;9.688;2023-07-16T01:30:08;5.50;;;3.63;;
2406;SDS011;37709;53.480;9.688;2023-07-16T01:32:38;7.20;;;3.93;;
2406;SDS011;37709;53.480;9.688;2023-07-16T01:35:06;8.80;;;4.60;;
2406;SDS011;37709;53.480;9.688;2023-07-16T01:37:34;6.10;;;4.47;;
2406;SDS011;37709;53.480;9.688;2023-07-16T01:40:02;5.43;;;4.20;;
2406;SDS011;37709;53.480;9.688;2023-07-16T01:42:31;6.77;;;4.30;;
2406;SDS011;37709;53.480;9.688;2023-07-16T01:44:58;7.40;;;4.63;;
2406;SDS011;37709;53.480;9.688;2023-07-16T01:50:13;4.27;;;3.40;;
2406;SDS011;37709;53.480;9.688;2023-07-16T01:52:41;7.60;;;4.50;;
2406;SDS011;37709;53.480;9.688;2023-07-16T01:55:09;6.87;;;4.40;;
2406;SDS011;37709;53.480;9.688;2023-07-16T01:57:36;4.40;;;3.77;;
2406;SDS011;37709;53.480;9.688;2023-07-16T02:00:04;4.60;;;3.90;;
2406;SDS011;37709;53.480;9.688;2023-07-16T02:02:45;5.07;;;3.70;;
2406;SDS011;37709;53.480;9.688;2023-07-16T02:05:14;5.07;;;4.30;;
2406;SDS011;37709;53.480;9.688;2023-07-16T02:07:42;4.93;;;4.03;;
2406;SDS011;37709;53.480;9.688;2023-07-16T02:10:09;6.07;;;4.10;;
2406;SDS011;37709;53.480;9.688;2023-07-16T02:12:37;5.67;;;3.80;;
2406;SDS011;37709;53.480;9.688;2023-07-16T02:15:05;7.00;;;4.37;;
2406;SDS011;37709;53.480;9.688;2023-07-16T02:17:36;4.70;;;4.30;;
2406;SDS011;37709;53.480;9.688;2023-07-16T02:20:04;6.57;;;4.80;;
2406;SDS011;37709;53.480;9.688;2023-07-16T02:22:33;6.93;;;4.30;;
2406;SDS011;37709;53.480;9.688;2023-07-16T02:25:01;5.73;;;4.50;;
2406;SDS011;37709;53.480;9.688;2023-07-16T02:27:29;6.80;;;4.63;;
2406;SDS011;37709;53.480;9.688;2023-07-16T02:29:57;6.03;;;4.70;;
2406;SDS011;37709;53.480;9.688;2023-07-16T02:32:24;5.30;;;4.40;;
2406;SDS011;37709;53.480;9.688;2023-07-16T02:34:52;7.53;;;5.70;;
2406;SDS011;37709;53.480;9.688;2023-07-16T02:37:20;5.07;;;4.60;;
2406;SDS011;37709;53.480;9.688;2023-07-16T02:39:47;5.50;;;4.67;;
2406;SDS011;37709;53.480;9.688;2023-07-16T02:42:15;5.77;;;4.97;;
2406;SDS011;37709;53.480;9.688;2023-07-16T02:44:43;7.93;;;5.67;;
2406;SDS011;37709;53.480;9.688;2023-07-16T02:47:12;8.50;;;5.50;;
2406;SDS011;37709;53.480;9.688;2023-07-16T02:49:39;7.50;;;4.80;;
2406;SDS011;37709;53.480;9.688;2023-07-16T02:52:07;6.40;;;4.67;;
2406;SDS011;37709;53.480;9.688;2023-07-16T02:54:35;5.27;;;4.60;;
2406;SDS011;37709;53.480;9.688;2023-07-16T02:57:03;4.93;;;4.30;;
2406;SDS011;37709;53.480;9.688;2023-07-16T02:59:31;4.87;;;3.70;;
2406;SDS011;37709;53.480;9.688;2023-07-16T03:01:59;5.23;;;3.87;;
2406;SDS011;37709;53.480;9.688;2023-07-16T03:04:27;5.10;;;4.03;;
2406;SDS011;37709;53.480;9.688;2023-07-16T03:06:54;6.57;;;4.77;;
2406;SDS011;37709;53.480;9.688;2023-07-16T03:09:23;9.50;;;5.10;;
2406;SDS011;37709;53.480;9.688;2023-07-16T03:14:47;4.07;;;3.53;;
2406;SDS011;37709;53.480;9.688;2023-07-16T03:17:17;7.00;;;4.77;;
2406;SDS011;37709;53.480;9.688;2023-07-16T03:19:45;8.27;;;4.37;;
2406;SDS011;37709;53.480;9.688;2023-07-16T03:22:12;5.60;;;3.63;;
2406;SDS011;37709;53.480;9.688;2023-07-16T03:24:41;9.43;;;4.30;;
2406;SDS011;37709;53.480;9.688;2023-07-16T03:27:08;6.30;;;4.47;;
2406;SDS011;37709;53.480;9.688;2023-07-16T03:29:45;5.03;;;4.47;;
2406;SDS011;37709;53.480;9.688;2023-07-16T03:32:15;5.30;;;4.10;;
2406;SDS011;37709;53.480;9.688;2023-07-16T03:34:42;6.70;;;4.07;;
2406;SDS011;37709;53.480;9.688;2023-07-16T03:37:10;7.30;;;4.67;;
2406;SDS011;37709;53.480;9.688;2023-07-16T03:39:43;9.23;;;5.10;;
2406;SDS011;37709;53.480;9.688;2023-07-16T03:42:11;8.40;;;5.80;;
2406;SDS011;37709;53.480;9.688;2023-07-16T03:44:39;10.00;;;5.10;;
2406;SDS011;37709;53.480;9.688;2023-07-16T03:47:07;7.70;;;4.67;;
2406;SDS011;37709;53.480;9.688;2023-07-16T03:49:34;8.20;;;4.77;;
2406;SDS011;37709;53.480;9.688;2023-07-16T03:52:02;7.47;;;5.50;;
2406;SDS011;37709;53.480;9.688;2023-07-16T03:54:31;9.60;;;5.37;;
2406;SDS011;37709;53.480;9.688;2023-07-16T03:56:58;9.70;;;5.50;;
2406;SDS011;37709;53.480;9.688;2023-07-16T03:59:26;10.70;;;5.13;;
2406;SDS011;37709;53.480;9.688;2023-07-16T04:01:54;7.80;;;5.53;;
2406;SDS011;37709;53.480;9.688;2023-07-16T04:04:23;8.90;;;4.77;;
2406;SDS011;37709;53.480;9.688;2023-07-16T04:06:51;8.10;;;4.93;;
2406;SDS011;37709;53.480;9.688;2023-07-16T04:09:19;6.60;;;5.10;;
2406;SDS011;37709;53.480;9.688;2023-07-16T04:11:47;7.67;;;5.33;;
2406;SDS011;37709;53.480;9.688;2023-07-16T04:14:14;5.60;;;4.30;;
2406;SDS011;37709;53.480;9.688;2023-07-16T04:16:42;7.30;;;4.57;;
2406;SDS011;37709;53.480;9.688;2023-07-16T04:19:10;10.33;;;4.77;;
2406;SDS011;37709;53.480;9.688;2023-07-16T04:21:38;6.20;;;5.00;;
2406;SDS011;37709;53.480;9.688;2023-07-16T04:24:06;12.33;;;6.17;;
2406;SDS011;37709;53.480;9.688;2023-07-16T04:26:34;7.63;;;4.90;;
2406;SDS011;37709;53.480;9.688;2023-07-16T04:29:02;10.10;;;5.20;;
2406;SDS011;37709;53.480;9.688;2023-07-16T04:31:30;7.87;;;4.80;;
2406;SDS011;37709;53.480;9.688;2023-07-16T04:33:58;5.00;;;3.90;;
2406;SDS011;37709;53.480;9.688;2023-07-16T04:36:26;7.40;;;4.77;;
2406;SDS011;37709;53.480;9.688;2023-07-16T04:38:53;5.87;;;3.80;;
2406;SDS011;37709;53.480;9.688;2023-07-16T04:41:21;6.70;;;4.20;;
2406;SDS011;37709;53.480;9.688;2023-07-16T04:43:49;4.73;;;4.20;;
2406;SDS011;37709;53.480;9.688;2023-07-16T04:46:17;9.93;;;4.70;;
2406;SDS011;37709;53.480;9.688;2023-07-16T04:48:45;6.63;;;4.53;;
2406;SDS011;37709;53.480;9.688;2023-07-16T04:51:13;8.73;;;3.90;;
2406;SDS011;37709;53.480;9.688;2023-07-16T04:53:41;7.23;;;4.00;;
2406;SDS011;37709;53.480;9.688;2023-07-16T04:56:12;4.37;;;2.97;;
2406;SDS011;37709;53.480;9.688;2023-07-16T04:58:41;8.00;;;3.90;;
2406;SDS011;37709;53.480;9.688;2023-07-16T05:01:09;5.17;;;3.40;;
2406;SDS011;37709;53.480;9.688;2023-07-16T05:03:37;4.37;;;2.90;;
2406;SDS011;37709;53.480;9.688;2023-07-16T05:06:05;4.80;;;3.73;;
2406;SDS011;37709;53.480;9.688;2023-07-16T05:08:33;7.40;;;3.77;;
2406;SDS011;37709;53.480;9.688;2023-07-16T05:11:01;6.33;;;3.37;;
2406;SDS011;37709;53.480;9.688;2023-07-16T05:13:29;4.50;;;2.97;;
2406;SDS011;37709;53.480;9.688;2023-07-16T05:15:58;7.90;;;3.03;;
2406;SDS011;37709;53.480;9.688;2023-07-16T05:18:26;11.57;;;3.10;;
2406;SDS011;37709;53.480;9.688;2023-07-16T05:20:54;4.30;;;3.50;;
2406;SDS011;37709;53.480;9.688;2023-07-16T05:23:21;2.80;;;2.50;;
2406;SDS011;37709;53.480;9.688;2023-07-16T05:25:49;7.33;;;3.10;;
2406;SDS011;37709;53.480;9.688;2023-07-16T05:28:17;4.43;;;2.67;;
2406;SDS011;37709;53.480;9.688;2023-07-16T05:30:45;6.13;;;2.90;;
2406;SDS011;37709;53.480;9.688;2023-07-16T05:33:14;5.67;;;2.63;;
2406;SDS011;37709;53.480;9.688;2023-07-16T05:35:41;3.00;;;2.40;;
2406;SDS011;37709;53.480;9.688;2023-07-16T05:38:10;3.50;;;2.93;;
2406;SDS011;37709;53.480;9.688;2023-07-16T05:40:38;3.50;;;2.40;;
2406;SDS011;37709;53.480;9.688;2023-07-16T05:43:05;6.23;;;2.60;;
2406;SDS011;37709;53.480;9.688;2023-07-16T05:45:33;4.30;;;2.57;;
2406;SDS011;37709;53.480;9.688;2023-07-16T05:48:01;3.97;;;2.43;;
2406;SDS011;37709;53.480;9.688;2023-07-16T05:50:30;5.73;;;2.30;;
2406;SDS011;37709;53.480;9.688;2023-07-16T05:52:58;4.40;;;2.50;;
2406;SDS011;37709;53.480;9.688;2023-07-16T05:55:25;4.00;;;2.20;;
2406;SDS011;37709;53.480;9.688;2023-07-16T05:57:53;4.27;;;2.10;;
2406;SDS011;37709;53.480;9.688;2023-07-16T06:00:21;3.00;;;2.13;;
2406;SDS011;37709;53.480;9.688;2023-07-16T06:02:50;4.20;;;2.20;;
2406;SDS011;37709;53.480;9.688;2023-07-16T06:05:18;2.80;;;1.83;;
2406;SDS011;37709;53.480;9.688;2023-07-16T06:07:46;5.00;;;2.70;;
2406;SDS011;37709;53.480;9.688;2023-07-16T06:10:13;4.13;;;2.50;;
2406;SDS011;37709;53.480;9.688;2023-07-16T06:12:41;4.00;;;1.90;;
2406;SDS011;37709;53.480;9.688;2023-07-16T06:15:09;4.00;;;2.10;;
2406;SDS011;37709;53.480;9.688;2023-07-16T06:17:36;5.97;;;2.67;;
2406;SDS011;37709;53.480;9.688;2023-07-16T06:20:05;6.10;;;2.43;;
2406;SDS011;37709;53.480;9.688;2023-07-16T06:22:34;2.93;;;2.00;;
2406;SDS011;37709;53.480;9.688;2023-07-16T06:25:03;3.57;;;2.30;;
2406;SDS011;37709;53.480;9.688;2023-07-16T06:27:31;3.00;;;2.50;;
2406;SDS011;37709;53.480;9.688;2023-07-16T06:29:59;4.93;;;2.20;;
2406;SDS011;37709;53.480;9.688;2023-07-16T06:32:26;5.50;;;2.67;;
2406;SDS011;37709;53.480;9.688;2023-07-16T06:34:54;3.60;;;2.33;;
2406;SDS011;37709;53.480;9.688;2023-07-16T06:37:22;5.30;;;2.70;;
2406;SDS011;37709;53.480;9.688;2023-07-16T06:39:51;6.37;;;2.40;;
2406;SDS011;37709;53.480;9.688;2023-07-16T06:42:18;5.30;;;2.93;;
2406;SDS011;37709;53.480;9.688;2023-07-16T06:44:48;4.60;;;2.83;;
2406;SDS011;37709;53.480;9.688;2023-07-16T06:47:15;4.57;;;2.73;;
2406;SDS011;37709;53.480;9.688;2023-07-16T06:49:43;7.73;;;2.97;;
2406;SDS011;37709;53.480;9.688;2023-07-16T06:52:23;4.90;;;2.40;;
2406;SDS011;37709;53.480;9.688;2023-07-16T06:54:54;6.80;;;3.07;;
2406;SDS011;37709;53.480;9.688;2023-07-16T06:57:23;2.83;;;2.30;;
2406;SDS011;37709;53.480;9.688;2023-07-16T06:59:52;8.07;;;3.27;;
2406;SDS011;37709;53.480;9.688;2023-07-16T07:02:20;7.07;;;3.50;;
2406;SDS011;37709;53.480;9.688;2023-07-16T07:04:48;5.60;;;2.47;;
2406;SDS011;37709;53.480;9.688;2023-07-16T07:07:15;6.00;;;2.60;;
2406;SDS011;37709;53.480;9.688;2023-07-16T07:09:46;6.93;;;3.10;;
2406;SDS011;37709;53.480;9.688;2023-07-16T07:12:14;7.83;;;2.90;;
2406;SDS011;37709;53.480;9.688;2023-07-16T07:14:42;7.13;;;2.77;;
2406;SDS011;37709;53.480;9.688;2023-07-16T07:17:11;5.43;;;2.40;;
2406;SDS011;37709;53.480;9.688;2023-07-16T07:19:39;5.87;;;2.73;;
2406;SDS011;37709;53.480;9.688;2023-07-16T07:22:06;7.97;;;2.90;;
2406;SDS011;37709;53.480;9.688;2023-07-16T07:24:34;4.67;;;2.47;;
2406;SDS011;37709;53.480;9.688;2023-07-16T07:27:02;5.53;;;2.67;;
2406;SDS011;37709;53.480;9.688;2023-07-16T07:29:30;5.10;;;2.40;;
2406;SDS011;37709;53.480;9.688;2023-07-16T07:31:58;4.30;;;2.60;;
2406;SDS011;37709;53.480;9.688;2023-07-16T07:34:26;4.73;;;2.30;;
2406;SDS011;37709;53.480;9.688;2023-07-16T07:36:55;4.80;;;2.73;;
2406;SDS011;37709;53.480;9.688;2023-07-16T07:39:23;4.47;;;2.27;;
2406;SDS011;37709;53.480;9.688;2023-07-16T07:41:50;5.77;;;2.20;;
2406;SDS011;37709;53.480;9.688;2023-07-16T07:44:18;4.70;;;2.50;;
2406;SDS011;37709;53.480;9.688;2023-07-16T07:46:46;3.90;;;2.37;;
2406;SDS011;37709;53.480;9.688;2023-07-16T07:49:14;3.23;;;1.83;;
2406;SDS011;37709;53.480;9.688;2023-07-16T07:51:42;4.70;;;2.20;;
2406;SDS011;37709;53.480;9.688;2023-07-16T07:54:10;2.57;;;2.00;;
2406;SDS011;37709;53.480;9.688;2023-07-16T07:56:40;2.23;;;1.50;;
2406;SDS011;37709;53.480;9.688;2023-07-16T07:59:08;3.00;;;1.90;;
2406;SDS011;37709;53.480;9.688;2023-07-16T08:01:35;5.33;;;2.40;;
2406;SDS011;37709;53.480;9.688;2023-07-16T08:04:03;3.87;;;2.00;;
2406;SDS011;37709;53.480;9.688;2023-07-16T08:06:31;3.90;;;1.60;;
2406;SDS011;37709;53.480;9.688;2023-07-16T08:08:59;4.10;;;2.27;;
2406;SDS011;37709;53.480;9.688;2023-07-16T08:11:27;2.97;;;1.70;;
2406;SDS011;37709;53.480;9.688;2023-07-16T08:13:55;4.83;;;2.13;;
2406;SDS011;37709;53.480;9.688;2023-07-16T08:16:22;2.90;;;1.90;;
2406;SDS011;37709;53.480;9.688;2023-07-16T08:18:51;2.37;;;1.80;;
2406;SDS011;37709;53.480;9.688;2023-07-16T08:21:19;4.33;;;2.37;;
2406;SDS011;37709;53.480;9.688;2023-07-16T08:23:48;2.70;;;1.80;;
2406;SDS011;37709;53.480;9.688;2023-07-16T08:26:17;5.93;;;2.30;;
2406;SDS011;37709;53.480;9.688;2023-07-16T08:28:45;5.73;;;2.53;;
2406;SDS011;37709;53.480;9.688;2023-07-16T08:31:12;4.27;;;2.60;;
2406;SDS011;37709;53.480;9.688;2023-07-16T08:33:40;2.97;;;2.77;;
2406;SDS011;37709;53.480;9.688;2023-07-16T08:36:09;4.37;;;3.23;;
2406;SDS011;37709;53.480;9.688;2023-07-16T08:38:36;3.00;;;2.80;;
2406;SDS011;37709;53.480;9.688;2023-07-16T08:41:04;3.10;;;2.70;;
2406;SDS011;37709;53.480;9.688;2023-07-16T08:43:32;5.43;;;3.27;;
2406;SDS011;37709;53.480;9.688;2023-07-16T08:46:05;3.27;;;2.97;;
2406;SDS011;37709;53.480;9.688;2023-07-16T08:48:33;5.10;;;3.50;;
2406;SDS011;37709;53.480;9.688;2023-07-16T08:51:01;3.90;;;3.17;;
2406;SDS011;37709;53.480;9.688;2023-07-16T08:53:30;4.40;;;3.27;;
2406;SDS011;37709;53.480;9.688;2023-07-16T08:55:57;3.50;;;2.70;;
2406;SDS011;37709;53.480;9.688;2023-07-16T08:58:25;4.53;;;3.07;;
2406;SDS011;37709;53.480;9.688;2023-07-16T09:00:53;4.43;;;4.03;;
2406;SDS011;37709;53.480;9.688;2023-07-16T09:03:21;5.33;;;3.77;;
2406;SDS011;37709;53.480;9.688;2023-07-16T09:05:49;5.17;;;3.07;;
2406;SDS011;37709;53.480;9.688;2023-07-16T09:08:16;5.60;;;3.17;;
2406;SDS011;37709;53.480;9.688;2023-07-16T09:10:44;4.03;;;3.00;;
2406;SDS011;37709;53.480;9.688;2023-07-16T09:16:14;3.03;;;2.70;;
2406;SDS011;37709;53.480;9.688;2023-07-16T09:18:48;3.83;;;2.90;;
2406;SDS011;37709;53.480;9.688;2023-07-16T09:21:16;4.03;;;3.20;;
2406;SDS011;37709;53.480;9.688;2023-07-16T09:23:44;5.87;;;2.93;;
2406;SDS011;37709;53.480;9.688;2023-07-16T09:26:11;5.97;;;2.83;;
2406;SDS011;37709;53.480;9.688;2023-07-16T09:28:40;4.17;;;2.90;;
2406;SDS011;37709;53.480;9.688;2023-07-16T09:31:07;5.40;;;2.80;;
2406;SDS011;37709;53.480;9.688;2023-07-16T09:33:35;4.40;;;2.43;;
2406;SDS011;37709;53.480;9.688;2023-07-16T09:36:03;3.60;;;2.97;;
2406;SDS011;37709;53.480;9.688;2023-07-16T09:38:31;3.83;;;2.73;;
2406;SDS011;37709;53.480;9.688;2023-07-16T09:41:04;3.40;;;2.80;;
2406;SDS011;37709;53.480;9.688;2023-07-16T09:43:34;6.43;;;3.27;;
2406;SDS011;37709;53.480;9.688;2023-07-16T09:46:02;7.87;;;3.20;;
2406;SDS011;37709;53.480;9.688;2023-07-16T09:48:30;6.30;;;2.97;;
2406;SDS011;37709;53.480;9.688;2023-07-16T09:50:59;3.93;;;3.20;;
2406;SDS011;37709;53.480;9.688;2023-07-16T09:53:26;3.37;;;3.07;;
2406;SDS011;37709;53.480;9.688;2023-07-16T09:55:55;6.17;;;3.40;;
2406;SDS011;37709;53.480;9.688;2023-07-16T09:58:22;4.93;;;2.57;;
2406;SDS011;37709;53.480;9.688;2023-07-16T10:00:50;4.63;;;2.30;;
2406;SDS011;37709;53.480;9.688;2023-07-16T10:03:18;3.43;;;2.90;;
2406;SDS011;37709;53.480;9.688;2023-07-16T10:05:47;3.33;;;2.43;;
2406;SDS011;37709;53.480;9.688;2023-07-16T10:08:17;4.33;;;2.83;;
2406;SDS011;37709;53.480;9.688;2023-07-16T10:10:46;3.03;;;2.20;;
2406;SDS011;37709;53.480;9.688;2023-07-16T10:13:21;4.50;;;2.67;;
2406;SDS011;37709;53.480;9.688;2023-07-16T10:15:53;6.63;;;2.70;;
2406;SDS011;37709;53.480;9.688;2023-07-16T10:18:28;3.70;;;2.30;;
2406;SDS011;37709;53.480;9.688;2023-07-16T10:21:02;3.13;;;2.50;;
2406;SDS011;37709;53.480;9.688;2023-07-16T10:23:36;4.23;;;2.53;;
2406;SDS011;37709;53.480;9.688;2023-07-16T10:26:05;4.43;;;2.50;;
2406;SDS011;37709;53.480;9.688;2023-07-16T10:28:33;4.17;;;2.70;;
2406;SDS011;37709;53.480;9.688;2023-07-16T10:31:01;3.90;;;2.60;;
2406;SDS011;37709;53.480;9.688;2023-07-16T10:33:29;4.37;;;2.73;;
2406;SDS011;37709;53.480;9.688;2023-07-16T10:35:57;5.63;;;2.60;;
2406;SDS011;37709;53.480;9.688;2023-07-16T10:38:25;4.70;;;2.90;;
2406;SDS011;37709;53.480;9.688;2023-07-16T10:40:53;4.50;;;2.93;;
2406;SDS011;37709;53.480;9.688;2023-07-16T10:43:21;4.90;;;3.10;;
2406;SDS011;37709;53.480;9.688;2023-07-16T10:45:50;3.00;;;2.43;;
2406;SDS011;37709;53.480;9.688;2023-07-16T10:48:23;4.23;;;3.63;;
2406;SDS011;37709;53.480;9.688;2023-07-16T10:50:53;3.27;;;2.70;;
2406;SDS011;37709;53.480;9.688;2023-07-16T10:53:22;3.20;;;2.60;;
2406;SDS011;37709;53.480;9.688;2023-07-16T10:55:50;3.87;;;2.80;;
2406;SDS011;37709;53.480;9.688;2023-07-16T10:58:17;3.17;;;2.87;;
2406;SDS011;37709;53.480;9.688;2023-07-16T11:00:46;3.27;;;2.40;;
2406;SDS011;37709;53.480;9.688;2023-07-16T11:03:15;4.33;;;2.50;;
2406;SDS011;37709;53.480;9.688;2023-07-16T11:05:46;8.20;;;3.67;;
2406;SDS011;37709;53.480;9.688;2023-07-16T11:08:23;6.10;;;2.83;;
2406;SDS011;37709;53.480;9.688;2023-07-16T11:10:55;4.83;;;2.80;;
2406;SDS011;37709;53.480;9.688;2023-07-16T11:13:31;4.70;;;2.40;;
2406;SDS011;37709;53.480;9.688;2023-07-16T11:16:08;6.57;;;2.67;;
2406;SDS011;37709;53.480;9.688;2023-07-16T11:18:37;3.03;;;2.57;;
2406;SDS011;37709;53.480;9.688;2023-07-16T11:21:04;2.90;;;2.53;;
2406;SDS011;37709;53.480;9.688;2023-07-16T11:23:35;3.83;;;2.40;;
2406;SDS011;37709;53.480;9.688;2023-07-16T11:26:03;3.40;;;2.57;;
2406;SDS011;37709;53.480;9.688;2023-07-16T11:28:40;3.87;;;2.47;;
2406;SDS011;37709;53.480;9.688;2023-07-16T11:31:15;5.20;;;2.40;;
2406;SDS011;37709;53.480;9.688;2023-07-16T11:33:44;4.10;;;2.67;;
2406;SDS011;37709;53.480;9.688;2023-07-16T11:36:12;4.17;;;2.43;;
2406;SDS011;37709;53.480;9.688;2023-07-16T11:38:41;4.20;;;2.27;;
2406;SDS011;37709;53.480;9.688;2023-07-16T11:41:09;3.97;;;2.37;;
2406;SDS011;37709;53.480;9.688;2023-07-16T11:43:37;3.83;;;2.20;;
2406;SDS011;37709;53.480;9.688;2023-07-16T11:46:14;4.10;;;2.83;;
2406;SDS011;37709;53.480;9.688;2023-07-16T11:48:43;3.90;;;2.53;;
2406;SDS011;37709;53.480;9.688;2023-07-16T11:51:11;4.60;;;2.33;;
2406;SDS011;37709;53.480;9.688;2023-07-16T11:53:39;4.40;;;2.80;;
2406;SDS011;37709;53.480;9.688;2023-07-16T11:56:07;4.80;;;2.70;;
2406;SDS011;37709;53.480;9.688;2023-07-16T11:58:36;3.07;;;2.47;;
2406;SDS011;37709;53.480;9.688;2023-07-16T12:01:04;4.20;;;2.53;;
2406;SDS011;37709;53.480;9.688;2023-07-16T12:03:31;4.67;;;2.80;;
2406;SDS011;37709;53.480;9.688;2023-07-16T12:06:01;4.03;;;2.23;;
2406;SDS011;37709;53.480;9.688;2023-07-16T12:08:28;2.70;;;2.20;;
2406;SDS011;37709;53.480;9.688;2023-07-16T12:10:56;5.43;;;2.47;;
2406;SDS011;37709;53.480;9.688;2023-07-16T12:13:28;3.47;;;2.50;;
2406;SDS011;37709;53.480;9.688;2023-07-16T12:15:56;3.23;;;2.37;;
2406;SDS011;37709;53.480;9.688;2023-07-16T12:18:24;2.57;;;2.03;;
2406;SDS011;37709;53.480;9.688;2023-07-16T12:20:51;3.10;;;2.30;;
2406;SDS011;37709;53.480;9.688;2023-07-16T12:23:20;2.73;;;1.83;;
2406;SDS011;37709;53.480;9.688;2023-07-16T12:25:48;3.83;;;2.60;;
2406;SDS011;37709;53.480;9.688;2023-07-16T12:28:16;2.90;;;2.60;;
2406;SDS011;37709;53.480;9.688;2023-07-16T12:30:44;3.50;;;2.27;;
2406;SDS011;37709;53.480;9.688;2023-07-16T12:33:11;2.63;;;2.07;;
2406;SDS011;37709;53.480;9.688;2023-07-16T12:35:39;2.73;;;2.10;;
2406;SDS011;37709;53.480;9.688;2023-07-16T12:38:07;3.37;;;1.97;;
2406;SDS011;37709;53.480;9.688;2023-07-16T12:40:35;5.07;;;2.67;;
2406;SDS011;37709;53.480;9.688;2023-07-16T12:43:07;2.73;;;1.90;;
2406;SDS011;37709;53.480;9.688;2023-07-16T12:45:36;2.43;;;2.03;;
2406;SDS011;37709;53.480;9.688;2023-07-16T12:48:03;4.30;;;2.20;;
2406;SDS011;37709;53.480;9.688;2023-07-16T12:50:32;5.73;;;2.10;;
2406;SDS011;37709;53.480;9.688;2023-07-16T12:53:00;2.93;;;1.97;;
2406;SDS011;37709;53.480;9.688;2023-07-16T12:55:28;2.57;;;2.13;;
2406;SDS011;37709;53.480;9.688;2023-07-16T12:58:02;3.80;;;2.07;;
2406;SDS011;37709;53.480;9.688;2023-07-16T13:00:30;4.30;;;2.30;;
2406;SDS011;37709;53.480;9.688;2023-07-16T13:02:58;3.00;;;2.10;;
2406;SDS011;37709;53.480;9.688;2023-07-16T13:05:26;3.30;;;2.27;;
2406;SDS011;37709;53.480;9.688;2023-07-16T13:07:54;3.10;;;2.23;;
2406;SDS011;37709;53.480;9.688;2023-07-16T13:10:22;6.30;;;2.30;;
2406;SDS011;37709;53.480;9.688;2023-07-16T13:12:50;3.23;;;1.87;;
2406;SDS011;37709;53.480;9.688;2023-07-16T13:15:18;3.13;;;2.20;;
2406;SDS011;37709;53.480;9.688;2023-07-16T13:17:46;4.20;;;2.47;;
2406;SDS011;37709;53.480;9.688;2023-07-16T13:20:16;2.90;;;2.23;;
2406;SDS011;37709;53.480;9.688;2023-07-16T13:22:47;3.97;;;2.13;;
2406;SDS011;37709;53.480;9.688;2023-07-16T13:25:15;4.13;;;3.13;;
2406;SDS011;37709;53.480;9.688;2023-07-16T13:27:43;2.83;;;1.90;;
2406;SDS011;37709;53.480;9.688;2023-07-16T13:30:11;2.20;;;1.90;;
2406;SDS011;37709;53.480;9.688;2023-07-16T13:32:39;2.20;;;2.00;;
2406;SDS011;37709;53.480;9.688;2023-07-16T13:35:07;2.90;;;1.90;;
2406;SDS011;37709;53.480;9.688;2023-07-16T13:37:38;4.00;;;2.30;;
2406;SDS011;37709;53.480;9.688;2023-07-16T13:40:06;3.77;;;2.00;;
2406;SDS011;37709;53.480;9.688;2023-07-16T13:42:35;3.60;;;1.87;;
2406;SDS011;37709;53.480;9.688;2023-07-16T13:45:03;3.60;;;2.27;;
2406;SDS011;37709;53.480;9.688;2023-07-16T13:47:31;3.00;;;2.70;;
2406;SDS011;37709;53.480;9.688;2023-07-16T13:49:59;2.47;;;2.27;;
2406;SDS011;37709;53.480;9.688;2023-07-16T13:52:27;2.60;;;1.83;;
2406;SDS011;37709;53.480;9.688;2023-07-16T13:54:55;2.33;;;2.13;;
2406;SDS011;37709;53.480;9.688;2023-07-16T13:57:23;3.40;;;2.43;;
2406;SDS011;37709;53.480;9.688;2023-07-16T13:59:52;4.20;;;2.73;;
2406;SDS011;37709;53.480;9.688;2023-07-16T14:02:19;4.73;;;2.50;;
2406;SDS011;37709;53.480;9.688;2023-07-16T14:04:47;3.00;;;2.60;;
2406;SDS011;37709;53.480;9.688;2023-07-16T14:07:16;3.07;;;2.20;;
2406;SDS011;37709;53.480;9.688;2023-07-16T14:09:45;3.07;;;2.37;;
2406;SDS011;37709;53.480;9.688;2023-07-16T14:12:12;4.40;;;2.50;;
2406;SDS011;37709;53.480;9.688;2023-07-16T14:14:41;3.47;;;2.40;;
2406;SDS011;37709;53.480;9.688;2023-07-16T14:17:08;3.00;;;2.53;;
2406;SDS011;37709;53.480;9.688;2023-07-16T14:19:37;4.13;;;2.37;;
2406;SDS011;37709;53.480;9.688;2023-07-16T14:22:05;4.70;;;2.20;;
2406;SDS011;37709;53.480;9.688;2023-07-16T14:24:33;3.13;;;2.70;;
2406;SDS011;37709;53.480;9.688;2023-07-16T14:27:02;3.30;;;2.37;;
2406;SDS011;37709;53.480;9.688;2023-07-16T14:29:31;3.53;;;2.83;;
2406;SDS011;37709;53.480;9.688;2023-07-16T14:31:59;2.63;;;2.43;;
2406;SDS011;37709;53.480;9.688;2023-07-16T14:34:27;2.50;;;2.30;;
2406;SDS011;37709;53.480;9.688;2023-07-16T14:36:55;3.33;;;2.37;;
2406;SDS011;37709;53.480;9.688;2023-07-16T14:39:22;2.30;;;2.10;;
2406;SDS011;37709;53.480;9.688;2023-07-16T14:41:50;2.80;;;2.23;;
2406;SDS011;37709;53.480;9.688;2023-07-16T14:44:18;3.33;;;2.50;;
2406;SDS011;37709;53.480;9.688;2023-07-16T14:46:45;2.77;;;2.30;;
2406;SDS011;37709;53.480;9.688;2023-07-16T14:49:15;3.40;;;2.13;;
2406;SDS011;37709;53.480;9.688;2023-07-16T14:51:44;3.30;;;2.27;;
2406;SDS011;37709;53.480;9.688;2023-07-16T14:54:12;3.40;;;2.57;;
2406;SDS011;37709;53.480;9.688;2023-07-16T14:56:39;2.40;;;2.00;;
2406;SDS011;37709;53.480;9.688;2023-07-16T14:59:07;3.10;;;2.60;;
2406;SDS011;37709;53.480;9.688;2023-07-16T15:01:36;3.40;;;2.37;;
2406;SDS011;37709;53.480;9.688;2023-07-16T15:04:04;4.20;;;2.17;;
2406;SDS011;37709;53.480;9.688;2023-07-16T15:06:32;3.50;;;2.37;;
2406;SDS011;37709;53.480;9.688;2023-07-16T15:09:00;5.00;;;2.10;;
2406;SDS011;37709;53.480;9.688;2023-07-16T15:11:28;3.27;;;2.93;;
2406;SDS011;37709;53.480;9.688;2023-07-16T15:13:56;5.10;;;2.53;;
2406;SDS011;37709;53.480;9.688;2023-07-16T15:16:24;4.07;;;2.50;;
2406;SDS011;37709;53.480;9.688;2023-07-16T15:18:51;2.97;;;2.50;;